createdAt,value
2023-05-14T00:00:59.786Z,8.40
2023-05-14T00:06:05.208Z,8.20
2023-05-14T00:11:09.162Z,9.90
2023-05-14T00:16:12.206Z,10.00
2023-05-14T00:21:14.954Z,8.90
2023-05-14T00:26:17.672Z,9.10
2023-05-14T00:31:20.427Z,9.10
2023-05-14T00:36:23.131Z,6.20
2023-05-14T00:41:25.822Z,8.20
2023-05-14T00:46:28.743Z,9.50
2023-05-14T00:51:31.562Z,9.00
2023-05-14T00:56:35.305Z,8.90
2023-05-14T01:01:37.860Z,9.60
2023-05-14T01:07:10.846Z,9.50
2023-05-14T01:12:34.719Z,9.30
2023-05-14T01:17:45.232Z,8.90
2023-05-14T01:22:47.804Z,7.70
2023-05-14T01:28:02.125Z,10.10
2023-05-14T01:33:16.554Z,11.30
2023-05-14T01:38:21.590Z,9.70
2023-05-14T01:43:24.514Z,10.20
2023-05-14T01:48:27.211Z,9.90
2023-05-14T01:53:29.842Z,9.40
2023-05-14T01:58:32.412Z,10.00
2023-05-14T02:03:35.070Z,10.20
2023-05-14T02:08:37.676Z,8.40
2023-05-14T02:13:40.230Z,8.80
2023-05-14T02:18:42.862Z,9.00
2023-05-14T02:23:45.520Z,8.70
2023-05-14T02:28:48.244Z,9.90
2023-05-14T02:33:50.851Z,9.60
2023-05-14T02:38:53.443Z,9.30
2023-05-14T02:43:56.051Z,9.70
2023-05-14T02:48:58.988Z,9.60
2023-05-14T02:54:01.785Z,9.30
2023-05-14T02:59:04.811Z,9.20
2023-05-14T03:04:07.984Z,8.50
2023-05-14T03:09:10.791Z,8.80
2023-05-14T03:14:13.412Z,10.40
2023-05-14T03:19:16.030Z,9.30
2023-05-14T03:24:18.717Z,8.20
2023-05-14T03:29:21.332Z,8.90
2023-05-14T03:34:24.301Z,8.10
2023-05-14T03:39:26.897Z,8.20
2023-05-14T03:44:29.527Z,9.60
2023-05-14T03:49:32.108Z,8.90
2023-05-14T03:54:34.767Z,10.40
2023-05-14T03:59:37.365Z,18.70
2023-05-14T04:04:41.121Z,14.10
2023-05-14T04:09:43.882Z,11.80
2023-05-14T04:14:46.530Z,11.90
2023-05-14T04:19:49.121Z,39.80
2023-05-14T04:24:52.464Z,15.10
2023-05-14T04:29:55.051Z,12.90
2023-05-14T04:34:57.744Z,10.10
2023-05-14T04:40:00.406Z,10.90
2023-05-14T04:45:05.276Z,9.80
2023-05-14T04:50:09.834Z,15.50
2023-05-14T04:55:12.426Z,11.10
2023-05-14T05:00:17.432Z,11.70
2023-05-14T05:05:20.703Z,10.10
2023-05-14T05:10:24.133Z,10.40
2023-05-14T05:15:27.508Z,10.10
2023-05-14T05:20:30.142Z,10.00
2023-05-14T05:25:32.934Z,10.90
2023-05-14T05:30:35.841Z,10.10
2023-05-14T05:35:38.513Z,9.50
2023-05-14T05:40:41.265Z,10.00
2023-05-14T05:45:44.220Z,9.50
2023-05-14T05:50:49.697Z,9.00
2023-05-14T05:55:52.446Z,9.40
2023-05-14T06:00:55.625Z,9.40
2023-05-14T06:05:58.208Z,9.10
2023-05-14T06:11:00.767Z,9.70
2023-05-14T06:16:03.596Z,9.60
2023-05-14T06:21:06.506Z,9.00
2023-05-14T06:26:09.047Z,8.00
2023-05-14T06:31:11.733Z,8.30
2023-05-14T06:36:14.364Z,7.80
2023-05-14T06:41:17.109Z,8.50
2023-05-14T06:46:19.684Z,7.00
2023-05-14T06:51:22.239Z,7.10
2023-05-14T06:56:24.916Z,6.30
2023-05-14T07:01:27.617Z,6.30
2023-05-14T07:06:30.860Z,6.00
2023-05-14T07:11:33.912Z,6.30
2023-05-14T07:16:37.094Z,5.80
2023-05-14T07:21:39.803Z,5.90
2023-05-14T07:26:42.428Z,6.10
2023-05-14T07:31:45.278Z,4.90
2023-05-14T07:36:48.226Z,5.00
2023-05-14T07:41:51.434Z,5.00
2023-05-14T07:46:54.097Z,4.60
2023-05-14T07:51:56.773Z,4.70
2023-05-14T07:56:59.374Z,4.30
2023-05-14T08:02:02.265Z,4.40
2023-05-14T08:07:05.909Z,3.60
2023-05-14T08:12:08.890Z,3.90
2023-05-14T08:17:11.562Z,3.80
2023-05-14T08:22:14.317Z,4.40
2023-05-14T08:27:17.147Z,4.10
2023-05-14T08:32:23.327Z,3.40
2023-05-14T08:37:27.288Z,4.10
2023-05-14T08:42:31.393Z,3.60
2023-05-14T08:47:34.351Z,3.70
2023-05-14T08:52:37.937Z,3.80
2023-05-14T08:57:40.752Z,3.60
2023-05-14T09:02:46.551Z,3.70
2023-05-14T09:07:49.922Z,3.50
2023-05-14T09:12:52.569Z,3.70
2023-05-14T09:17:55.485Z,3.10
2023-05-14T09:23:02.732Z,3.60
2023-05-14T09:28:08.340Z,3.50
2023-05-14T09:33:11.114Z,3.70
2023-05-14T09:38:13.714Z,3.40
2023-05-14T09:43:16.315Z,3.20
2023-05-14T09:48:19.909Z,3.10
2023-05-14T09:53:22.724Z,2.90
2023-05-14T09:58:25.507Z,3.10
2023-05-14T10:03:30.964Z,2.80
2023-05-14T10:08:36.136Z,2.90
2023-05-14T10:13:46.316Z,3.00
2023-05-14T10:18:57.014Z,2.90
2023-05-14T10:24:00.710Z,2.70
2023-05-14T10:29:03.367Z,2.80
2023-05-14T10:34:38.515Z,2.70
2023-05-14T10:40:08.263Z,3.10
2023-05-14T10:45:13.874Z,2.70
2023-05-14T10:50:17.727Z,2.80
2023-05-14T10:55:21.778Z,2.60
2023-05-14T11:00:27.731Z,2.60
2023-05-14T11:05:31.692Z,2.90
2023-05-14T11:10:35.799Z,2.70
2023-05-14T11:15:45.426Z,2.90
2023-05-14T11:20:48.016Z,2.70
2023-05-14T11:25:53.185Z,3.00
2023-05-14T11:30:56.299Z,2.90
2023-05-14T11:35:58.885Z,3.00
2023-05-14T11:41:01.440Z,3.00
2023-05-14T11:46:04.439Z,2.80
2023-05-14T11:51:07.166Z,2.60
2023-05-14T11:56:10.097Z,2.70
2023-05-14T12:01:14.145Z,3.00
2023-05-14T12:06:18.188Z,3.00
2023-05-14T12:11:21.991Z,2.70
2023-05-14T12:16:32.572Z,2.70
2023-05-14T12:21:36.678Z,2.70
2023-05-14T12:26:48.512Z,2.80
2023-05-14T12:31:51.352Z,2.70
2023-05-14T12:36:54.129Z,2.70
2023-05-14T12:41:56.653Z,3.00
2023-05-14T12:46:59.344Z,2.80
2023-05-14T12:52:17.405Z,2.80
2023-05-14T12:57:25.484Z,2.90
2023-05-14T13:02:28.202Z,2.40
2023-05-14T13:07:31.646Z,2.10
2023-05-14T13:12:34.384Z,2.30
2023-05-14T13:17:37.153Z,2.40
2023-05-14T13:22:39.929Z,2.10
2023-05-14T13:27:42.534Z,2.30
2023-05-14T13:32:46.140Z,2.50
2023-05-14T13:37:48.783Z,2.50
2023-05-14T13:42:51.417Z,2.20
2023-05-14T13:47:53.984Z,2.40
2023-05-14T13:52:56.756Z,2.60
2023-05-14T13:58:02.376Z,2.20
2023-05-14T14:03:05.698Z,2.40
2023-05-14T14:08:22.771Z,2.70
2023-05-14T14:13:27.970Z,2.40
2023-05-14T14:18:30.672Z,1.80
2023-05-14T14:23:33.553Z,2.30
2023-05-14T14:28:36.351Z,2.10
2023-05-14T14:33:39.297Z,1.80
2023-05-14T14:38:41.971Z,1.90
2023-05-14T14:43:44.767Z,2.30
2023-05-14T14:48:47.414Z,2.20
2023-05-14T14:53:50.081Z,2.20
2023-05-14T14:58:52.708Z,2.10
2023-05-14T15:03:55.269Z,2.40
2023-05-14T15:08:57.854Z,2.30
2023-05-14T15:14:00.445Z,2.10
2023-05-14T15:19:03.088Z,2.10
2023-05-14T15:24:06.859Z,2.00
2023-05-14T15:29:09.471Z,2.00
2023-05-14T15:34:12.046Z,2.20
2023-05-14T15:39:14.753Z,2.30
2023-05-14T15:44:17.552Z,2.00
2023-05-14T15:49:20.346Z,2.20
2023-05-14T15:54:23.079Z,2.10
2023-05-14T15:59:25.700Z,2.10
2023-05-14T16:04:28.374Z,2.10
2023-05-14T16:09:32.124Z,2.20
2023-05-14T16:14:35.830Z,2.10
2023-05-14T16:19:39.732Z,2.70
2023-05-14T16:24:42.637Z,2.40
2023-05-14T16:29:45.492Z,2.20
2023-05-14T16:34:51.685Z,2.30
2023-05-14T16:39:54.978Z,2.50
2023-05-14T16:44:57.621Z,2.30
2023-05-14T16:50:00.224Z,2.40
2023-05-14T16:55:03.110Z,2.20
2023-05-14T17:00:07.815Z,2.60
2023-05-14T17:05:10.483Z,2.50
2023-05-14T17:10:13.158Z,2.20
2023-05-14T17:15:15.947Z,2.50
2023-05-14T17:20:18.804Z,2.50
2023-05-14T17:25:23.658Z,1.90
2023-05-14T17:30:26.604Z,2.40
2023-05-14T17:35:29.251Z,2.30
2023-05-14T17:40:31.963Z,2.50
2023-05-14T17:45:46.253Z,2.40
2023-05-14T17:50:55.635Z,2.50
2023-05-14T17:55:58.357Z,2.30
2023-05-14T18:01:02.373Z,2.70
2023-05-14T18:06:05.360Z,2.10
2023-05-14T18:11:08.022Z,2.20
2023-05-14T18:16:10.724Z,2.60
2023-05-14T18:21:13.490Z,2.50
2023-05-14T18:26:16.329Z,2.40
2023-05-14T18:31:19.020Z,2.30
2023-05-14T18:36:21.965Z,2.30
2023-05-14T18:41:24.893Z,8.90
2023-05-14T18:46:27.964Z,6.30
2023-05-14T18:51:30.816Z,4.60
2023-05-14T18:56:34.742Z,4.00
2023-05-14T19:01:37.341Z,4.00
2023-05-14T19:06:43.012Z,3.20
2023-05-14T19:11:45.630Z,5.90
2023-05-14T19:16:51.505Z,5.80
2023-05-14T19:21:54.352Z,4.10
2023-05-14T19:26:57.063Z,3.90
2023-05-14T19:31:59.804Z,5.00
2023-05-14T19:37:03.186Z,5.90
2023-05-14T19:42:06.494Z,6.10
2023-05-14T19:47:09.283Z,5.20
2023-05-14T19:52:11.976Z,4.60
2023-05-14T19:57:14.604Z,5.80
2023-05-14T20:02:18.599Z,6.10
2023-05-14T20:07:21.465Z,5.20
2023-05-14T20:12:24.051Z,4.90
2023-05-14T20:17:26.870Z,4.40
2023-05-14T20:22:29.499Z,5.10
2023-05-14T20:27:32.676Z,4.70
2023-05-14T20:32:35.585Z,4.90
2023-05-14T20:37:39.041Z,4.70
2023-05-14T20:42:41.621Z,5.20
2023-05-14T20:47:44.559Z,4.40
2023-05-14T20:52:47.320Z,3.90
2023-05-14T20:57:49.898Z,4.10
2023-05-14T21:02:53.082Z,4.30
2023-05-14T21:07:55.772Z,13.50
2023-05-14T21:12:58.385Z,5.10
2023-05-14T21:18:02.180Z,5.70
2023-05-14T21:23:04.984Z,6.30
2023-05-14T21:28:07.811Z,5.40
2023-05-14T21:33:10.401Z,4.90
2023-05-14T21:38:13.001Z,5.70
2023-05-14T21:43:15.646Z,5.90
2023-05-14T21:48:18.424Z,5.90
2023-05-14T21:53:21.130Z,4.40
2023-05-14T21:58:23.911Z,4.20
2023-05-14T22:03:26.719Z,4.10
2023-05-14T22:08:30.726Z,4.90
2023-05-14T22:13:35.071Z,5.00
2023-05-14T22:18:38.357Z,7.20
2023-05-14T22:23:41.074Z,4.50
2023-05-14T22:28:43.697Z,5.20
2023-05-14T22:33:46.358Z,4.60
2023-05-14T22:38:48.926Z,5.10
2023-05-14T22:43:51.697Z,5.40
2023-05-14T22:48:54.558Z,5.30
2023-05-14T22:53:57.715Z,5.00
2023-05-14T22:59:00.683Z,3.40
2023-05-14T23:04:03.386Z,3.70
2023-05-14T23:09:06.057Z,4.90
2023-05-14T23:14:09.057Z,5.50
2023-05-14T23:19:12.337Z,4.60
2023-05-14T23:24:15.411Z,4.50
2023-05-14T23:29:18.075Z,5.00
2023-05-14T23:34:22.124Z,6.00
2023-05-14T23:39:24.749Z,5.50
2023-05-14T23:44:27.486Z,5.60
2023-05-14T23:49:30.116Z,5.70
2023-05-14T23:54:32.735Z,4.50
2023-05-14T23:59:35.529Z,5.10
